Terminal Aerodrome Forecast
Issued by NWS Grand Forks, ND

Home | Current Version | Previous Version | Graphics & Text | Print | Product List | Glossary On
Versions: 1 2 3 4 5 6 7 8 9 10 11 12 13 14 15 16 17 18 19
601
FTUS43 KFGF 151544 AAD
TAFGFK
TAF AMD
KGFK 151544Z 1516/1612 15007KT P6SM -SN OVC029
      TEMPO 1516/1519 -SN
     FM151900 16008KT P6SM OVC015
      TEMPO 1520/1522 3/4SM -SN OVC007
     FM152200 14007KT 1SM -SN OVC015
     FM160300 11007KT 3/4SM -SN OVC010
     FM160600 11007KT P6SM OVC010=

USA.gov is the U.S. government's official web portal to all federal, state and local government web resources and services.